Time;durP1;ratioP1;P1;durP2;ratioP2;P2;SDS_P1;SDS_P2;PMS_P1;PMS_P2;Temp;Humidity;BMP_temperature;BMP_pressure;BME280_temperature;BME280_humidity;BME280_pressure;Samples;Min_cycle;Max_cycle;Signal;HPM_P1;HPM_P2
2023/12/11 00:01:11;;;;;;;0.10;0.10;;;9.50;41.50;;;;;;4926052;29;20063;-79
2023/12/11 00:03:37;;;;;;;0.10;0.10;;;9.40;62.00;;;;;;4925946;29;20063;-77
2023/12/11 00:06:03;;;;;;;0.10;0.10;;;9.40;86.70;;;;;;4927837;29;20027;-77
2023/12/11 00:08:31;;;;;;;2.45;0.70;;;9.40;92.90;;;;;;4922789;29;20477;-80
2023/12/11 00:10:58;;;;;;;0.55;0.50;;;9.30;87.70;;;;;;4926556;29;20047;-79
2023/12/11 00:13:24;;;;;;;0.20;0.20;;;9.20;97.30;;;;;;4925561;29;20035;-79
2023/12/11 00:15:50;;;;;;;0.30;0.30;;;9.20;99.90;;;;;;4926422;29;20027;-78
2023/12/11 00:18:16;;;;;;;0.10;0.10;;;9.10;99.90;;;;;;4925334;29;20730;-78
2023/12/11 00:20:43;;;;;;;1.50;0.52;;;9.20;99.90;;;;;;4920338;29;20047;-80
2023/12/11 00:23:09;;;;;;;0.10;0.10;;;9.20;99.90;;;;;;4925443;29;20031;-80
2023/12/11 00:25:37;;;;;;;0.10;0.10;;;9.20;99.90;;;;;;4926919;29;20063;-80
2023/12/11 00:28:03;;;;;;;0.30;0.30;;;9.30;99.90;;;;;;4927477;29;20039;-80
2023/12/11 00:30:29;;;;;;;0.90;0.90;;;9.30;98.40;;;;;;4927218;29;20031;-80
2023/12/11 00:32:55;;;;;;;0.45;0.45;;;9.20;99.20;;;;;;4930284;29;20050;-80
2023/12/11 00:35:22;;;;;;;0.73;0.73;;;9.30;97.10;;;;;;4945157;29;20055;-78
2023/12/11 00:37:48;;;;;;;0.10;0.10;;;9.40;58.60;;;;;;4929495;29;20215;-78
2023/12/11 00:40:14;;;;;;;0.17;0.17;;;9.50;22.60;;;;;;4930732;29;20036;-79
2023/12/11 00:42:40;;;;;;;0.10;0.10;;;9.60;1.00;;;;;;4925646;29;20041;-79
2023/12/11 00:45:07;;;;;;;0.20;0.20;;;9.60;1.00;;;;;;4927247;29;20043;-78
2023/12/11 00:47:33;;;;;;;0.10;0.10;;;9.60;1.00;;;;;;4959340;28;20051;-78
2023/12/11 00:49:59;;;;;;;0.08;0.08;;;9.50;1.00;;;;;;4968453;28;20035;-78
2023/12/11 00:52:25;;;;;;;2.85;0.63;;;9.40;3.80;;;;;;4965870;28;20045;-77
2023/12/11 00:54:52;;;;;;;0.38;0.38;;;9.40;13.20;;;;;;4963743;28;20038;-76
2023/12/11 00:57:18;;;;;;;0.10;0.10;;;9.30;31.60;;;;;;4972441;28;20031;-78
2023/12/11 00:59:44;;;;;;;1.48;0.47;;;9.30;49.50;;;;;;4971774;28;20383;-77
2023/12/11 01:02:10;;;;;;;0.10;0.10;;;9.20;51.00;;;;;;4964622;28;20042;-77
2023/12/11 01:04:36;;;;;;;0.10;0.10;;;9.20;69.70;;;;;;4963918;28;20035;-77
2023/12/11 01:07:03;;;;;;;0.10;0.10;;;9.20;63.10;;;;;;4967647;28;20031;-78
2023/12/11 01:09:29;;;;;;;2.22;0.30;;;9.20;63.70;;;;;;4966602;28;20460;-79
2023/12/11 01:11:55;;;;;;;0.20;0.20;;;9.20;68.40;;;;;;4970277;28;20045;-79
2023/12/11 01:14:21;;;;;;;0.10;0.10;;;9.20;61.70;;;;;;4964281;28;20043;-78
2023/12/11 01:16:47;;;;;;;0.10;0.10;;;9.30;51.50;;;;;;4963146;28;20061;-77
2023/12/11 01:19:14;;;;;;;0.40;0.30;;;9.30;43.60;;;;;;4967770;28;20038;-77
2023/12/11 01:21:40;;;;;;;0.20;0.20;;;9.30;31.10;;;;;;4969687;28;20456;-76
2023/12/11 01:24:06;;;;;;;0.10;0.10;;;9.30;24.50;;;;;;4967281;28;20035;-77
2023/12/11 01:26:32;;;;;;;0.10;0.10;;;9.40;18.20;;;;;;4963341;28;20027;-77
2023/12/11 01:28:59;;;;;;;0.17;0.17;;;9.50;1.00;;;;;;4968482;28;20487;-77
2023/12/11 01:31:25;;;;;;;0.20;0.20;;;9.60;1.00;;;;;;4967564;28;20030;-75
2023/12/11 01:33:51;;;;;;;0.10;0.10;;;9.60;1.00;;;;;;4964947;28;20249;-76
2023/12/11 01:36:18;;;;;;;0.15;0.15;;;9.50;1.00;;;;;;4964188;28;20038;-77
2023/12/11 01:38:44;;;;;;;0.10;0.10;;;9.40;1.00;;;;;;4949493;28;20043;-77
2023/12/11 01:41:10;;;;;;;0.35;0.35;;;9.60;1.00;;;;;;4967985;28;20031;-76
2023/12/11 01:43:37;;;;;;;0.20;0.20;;;9.60;1.00;;;;;;4967868;28;20034;-79
2023/12/11 01:46:09;;;;;;;0.68;0.43;;;9.60;1.00;;;;;;4961874;28;20480;-76
2023/12/11 01:48:36;;;;;;;1.17;0.28;;;9.70;1.00;;;;;;4964494;28;20043;-79
2023/12/11 01:51:03;;;;;;;0.00;0.00;;;9.70;1.00;;;;;;4967137;28;20043;-78
2023/12/11 01:53:31;;;;;;;0.10;0.10;;;9.70;1.00;;;;;;4968746;28;20043;-79
2023/12/11 01:55:57;;;;;;;0.10;0.10;;;9.60;1.00;;;;;;4963809;28;20065;-76
2023/12/11 01:58:24;;;;;;;0.40;0.32;;;9.60;1.00;;;;;;4963258;28;20031;-77
2023/12/11 02:00:51;;;;;;;0.10;0.10;;;9.50;1.00;;;;;;4967214;28;20034;-78
2023/12/11 02:03:22;;;;;;;0.10;0.10;;;9.60;1.00;;;;;;4968678;28;20034;-77
2023/12/11 02:05:49;;;;;;;0.10;0.10;;;9.60;1.00;;;;;;4964286;28;20038;-77
2023/12/11 02:08:16;;;;;;;0.47;0.30;;;9.60;1.00;;;;;;4959425;28;20045;-77
2023/12/11 02:10:42;;;;;;;0.10;0.10;;;9.50;1.00;;;;;;4967549;28;20039;-79
2023/12/11 02:13:08;;;;;;;0.25;0.25;;;9.50;1.00;;;;;;4966353;28;20041;-78
2023/12/11 02:15:43;;;;;;;0.10;0.10;;;9.40;1.00;;;;;;4965308;28;20046;-77
2023/12/11 02:18:11;;;;;;;0.10;0.10;;;9.40;1.00;;;;;;4960977;28;20038;-76
2023/12/11 02:20:39;;;;;;;0.10;0.10;;;9.50;1.00;;;;;;4965764;28;20035;-77
2023/12/11 02:23:10;;;;;;;0.10;0.10;;;9.60;1.00;;;;;;4966313;28;20046;-77
2023/12/11 02:25:36;;;;;;;;;;;9.50;1.00;;;;;;4967726;28;20043;-80
2023/12/11 02:28:05;;;;;;;0.20;0.20;;;9.50;1.00;;;;;;4964127;28;19906;-78
2023/12/11 02:30:35;;;;;;;0.10;0.10;;;9.50;1.00;;;;;;4961476;28;20034;-78
2023/12/11 02:33:02;;;;;;;0.13;0.13;;;9.30;1.00;;;;;;4966807;28;20033;-78
2023/12/11 02:35:28;;;;;;;0.10;0.10;;;9.30;1.00;;;;;;4968749;28;20047;-79
2023/12/11 02:37:54;;;;;;;0.20;0.20;;;9.40;1.00;;;;;;4964828;28;20042;-78
2023/12/11 02:40:20;;;;;;;5.88;0.75;;;9.40;1.00;;;;;;4964708;28;20035;-77
2023/12/11 02:42:47;;;;;;;0.10;0.10;;;9.50;1.00;;;;;;4966906;28;20419;-79
2023/12/11 02:45:14;;;;;;;0.10;0.10;;;9.50;1.00;;;;;;4966772;28;20039;-78
2023/12/11 02:47:41;;;;;;;0.10;0.10;;;9.40;1.00;;;;;;4965717;28;20045;-78
2023/12/11 02:50:08;;;;;;;0.03;0.03;;;9.30;1.00;;;;;;4961546;28;20094;-77
2023/12/11 02:52:34;;;;;;;0.10;0.10;;;9.30;1.00;;;;;;4967755;28;20046;-81
2023/12/11 02:55:01;;;;;;;0.43;0.20;;;9.30;1.00;;;;;;4963985;28;20031;-79
2023/12/11 02:57:27;;;;;;;0.45;0.45;;;9.20;1.00;;;;;;4954205;28;20034;-77
2023/12/11 02:59:53;;;;;;;0.10;0.10;;;9.20;3.00;;;;;;4966038;28;20050;-77
2023/12/11 03:02:19;;;;;;;0.10;0.10;;;9.20;4.90;;;;;;4962614;28;20031;-78
2023/12/11 03:04:46;;;;;;;0.10;0.10;;;9.20;16.00;;;;;;4965920;28;20370;-78
2023/12/11 03:07:14;;;;;;;0.10;0.10;;;9.30;5.50;;;;;;4964604;28;20035;-79
2023/12/11 03:09:40;;;;;;;0.47;0.45;;;9.40;1.00;;;;;;4967802;28;20396;-81
2023/12/11 03:12:06;;;;;;;0.10;0.10;;;9.40;1.00;;;;;;4961223;28;20085;-78
2023/12/11 03:14:32;;;;;;;0.10;0.10;;;9.40;1.00;;;;;;4963992;28;20042;-77
2023/12/11 03:16:58;;;;;;;0.40;0.40;;;9.50;1.00;;;;;;4963771;28;20472;-79
2023/12/11 03:19:25;;;;;;;0.10;0.10;;;9.60;1.00;;;;;;4953647;28;20051;-78
2023/12/11 03:21:55;;;;;;;0.20;0.20;;;9.70;1.00;;;;;;4961594;28;20035;-78
2023/12/11 03:24:21;;;;;;;0.10;0.10;;;9.70;1.00;;;;;;4959311;28;20034;-78
2023/12/11 03:26:47;;;;;;;0.10;0.10;;;9.70;1.00;;;;;;4966589;28;20046;-78
2023/12/11 03:29:15;;;;;;;0.98;0.60;;;9.70;1.00;;;;;;4962999;28;20473;-78
2023/12/11 03:31:41;;;;;;;0.22;0.22;;;9.60;1.00;;;;;;4966278;28;20035;-81
2023/12/11 03:34:07;;;;;;;0.85;0.85;;;9.60;1.00;;;;;;4959685;28;20031;-78
2023/12/11 03:36:33;;;;;;;0.10;0.10;;;9.50;1.00;;;;;;4965437;28;20035;-78
2023/12/11 03:38:59;;;;;;;2.15;0.73;;;9.50;1.00;;;;;;4964198;28;20218;-79
2023/12/11 03:41:25;;;;;;;0.10;0.10;;;9.40;1.00;;;;;;4968742;28;20035;-79
2023/12/11 03:43:52;;;;;;;0.20;0.20;;;9.30;1.00;;;;;;4962000;28;20034;-79
2023/12/11 03:46:18;;;;;;;0.47;0.45;;;9.40;1.00;;;;;;4964421;28;20054;-78
2023/12/11 03:48:44;;;;;;;0.77;0.45;;;9.40;1.00;;;;;;4964562;28;20042;-78
2023/12/11 03:51:10;;;;;;;0.47;0.47;;;9.30;1.00;;;;;;4966392;28;20046;-78
2023/12/11 03:53:36;;;;;;;0.40;0.30;;;9.20;1.00;;;;;;4962958;28;20035;-79
2023/12/11 03:56:03;;;;;;;0.10;0.10;;;9.10;1.00;;;;;;4958311;28;20486;-79
2023/12/11 03:58:29;;;;;;;0.30;0.30;;;9.00;1.00;;;;;;4946241;28;20047;-77
2023/12/11 04:00:55;;;;;;;3.33;0.70;;;8.90;1.00;;;;;;4966619;28;20030;-79
2023/12/11 04:03:21;;;;;;;0.10;0.10;;;8.90;11.50;;;;;;4962619;28;20476;-78
2023/12/11 04:05:48;;;;;;;0.10;0.10;;;8.80;16.80;;;;;;4959126;28;20080;-78
2023/12/11 04:08:14;;;;;;;0.13;0.13;;;8.80;24.00;;;;;;4953545;28;20469;-81
2023/12/11 04:10:40;;;;;;;1.88;0.60;;;8.80;36.40;;;;;;4956718;28;20031;-80
2023/12/11 04:13:06;;;;;;;0.82;0.63;;;8.80;38.20;;;;;;4958854;28;20051;-79
2023/12/11 04:15:33;;;;;;;0.10;0.10;;;8.80;35.50;;;;;;4961702;28;20058;-78
2023/12/11 04:17:59;;;;;;;1.17;0.55;;;8.80;42.70;;;;;;4961871;28;20050;-79
2023/12/11 04:20:25;;;;;;;1.95;0.82;;;8.80;45.50;;;;;;4964327;28;20031;-78
2023/12/11 04:22:51;;;;;;;1.27;0.95;;;8.80;43.80;;;;;;4964180;28;20499;-77
2023/12/11 04:25:18;;;;;;;0.28;0.28;;;8.90;35.80;;;;;;4962736;28;20043;-78
2023/12/11 04:27:44;;;;;;;0.20;0.20;;;9.00;28.50;;;;;;4958865;28;20072;-78
2023/12/11 04:30:11;;;;;;;0.10;0.10;;;9.10;17.70;;;;;;4963113;28;20035;-79
2023/12/11 04:32:37;;;;;;;0.55;0.55;;;9.20;14.10;;;;;;4965547;28;20039;-78
2023/12/11 04:35:04;;;;;;;0.45;0.43;;;9.30;1.00;;;;;;4963342;28;20035;-79
2023/12/11 04:37:30;;;;;;;0.38;0.30;;;9.40;1.00;;;;;;4961050;28;20039;-78
2023/12/11 04:39:56;;;;;;;0.10;0.10;;;9.40;1.00;;;;;;4961993;28;20046;-78
2023/12/11 04:42:22;;;;;;;0.10;0.10;;;9.30;1.00;;;;;;4964447;28;20034;-78
2023/12/11 04:44:48;;;;;;;0.63;0.60;;;9.20;1.00;;;;;;4965665;28;20388;-78
2023/12/11 04:47:15;;;;;;;2.22;1.88;;;9.10;31.30;;;;;;4967209;28;20047;-78
2023/12/11 04:49:43;;;;;;;0.30;0.30;;;9.00;78.50;;;;;;4962100;28;20043;-78
2023/12/11 04:52:10;;;;;;;0.10;0.10;;;8.90;99.90;;;;;;4961795;28;20038;-78
2023/12/11 04:54:36;;;;;;;0.10;0.10;;;8.90;99.90;;;;;;4965326;28;20031;-78
2023/12/11 04:57:02;;;;;;;0.10;0.10;;;8.80;99.90;;;;;;4962494;28;20053;-78
2023/12/11 04:59:28;;;;;;;0.10;0.10;;;8.80;99.90;;;;;;4963124;28;20038;-80
2023/12/11 05:01:55;;;;;;;0.20;0.20;;;8.80;99.90;;;;;;4964242;28;20395;-80
2023/12/11 05:04:21;;;;;;;0.10;0.10;;;8.80;99.90;;;;;;4964874;28;20049;-79
2023/12/11 05:06:47;;;;;;;0.10;0.10;;;8.80;99.90;;;;;;4946778;28;20047;-78
2023/12/11 05:09:13;;;;;;;0.20;0.20;;;8.70;99.90;;;;;;4967135;28;20034;-78
2023/12/11 05:11:40;;;;;;;0.10;0.10;;;8.70;99.90;;;;;;4959891;28;20031;-80
2023/12/11 05:14:06;;;;;;;0.55;0.55;;;8.60;99.90;;;;;;4967094;28;20058;-79
2023/12/11 05:16:32;;;;;;;0.10;0.10;;;8.60;99.90;;;;;;4970500;28;20053;-79
2023/12/11 05:18:58;;;;;;;0.52;0.22;;;8.50;99.90;;;;;;4968041;28;20039;-78
2023/12/11 05:21:24;;;;;;;0.10;0.10;;;8.40;99.90;;;;;;4966768;28;20457;-79
2023/12/11 05:23:52;;;;;;;1.40;0.73;;;8.40;1.00;;;;;;4963179;28;20035;-79
2023/12/11 05:26:19;;;;;;;0.30;0.30;;;8.40;1.00;;;;;;4949858;28;20099;-79
2023/12/11 05:28:45;;;;;;;0.10;0.10;;;8.40;1.00;;;;;;4964452;28;20035;-79
2023/12/11 05:31:11;;;;;;;1.55;1.33;;;8.30;1.00;;;;;;4964689;28;20043;-78
2023/12/11 05:33:37;;;;;;;0.10;0.10;;;8.30;1.00;;;;;;4960624;28;20034;-79
2023/12/11 05:36:04;;;;;;;0.65;0.57;;;8.20;1.00;;;;;;4968645;28;20027;-78
2023/12/11 05:38:30;;;;;;;0.20;0.20;;;8.20;1.00;;;;;;4969272;28;20054;-76
2023/12/11 05:40:56;;;;;;;0.10;0.10;;;8.20;99.90;;;;;;4966211;28;20031;-78
2023/12/11 05:43:23;;;;;;;0.10;0.10;;;8.20;99.90;;;;;;4961638;28;20042;-79
2023/12/11 05:45:49;;;;;;;0.40;0.35;;;8.30;99.90;;;;;;4965838;28;20043;-79
2023/12/11 05:48:15;;;;;;;1.75;0.73;;;8.20;99.90;;;;;;4967714;28;20038;-78
2023/12/11 05:50:42;;;;;;;0.10;0.10;;;8.20;99.90;;;;;;4966144;28;20039;-78
2023/12/11 05:53:08;;;;;;;0.10;0.10;;;8.10;99.90;;;;;;4963113;28;20039;-78
2023/12/11 05:55:34;;;;;;;0.30;0.30;;;7.90;99.90;;;;;;4967316;28;20054;-79
2023/12/11 05:58:00;;;;;;;0.30;0.30;;;7.80;99.90;;;;;;4964017;28;20046;-80
2023/12/11 06:00:27;;;;;;;0.30;0.20;;;7.70;99.90;;;;;;4968897;28;20034;-80
2023/12/11 06:02:53;;;;;;;0.10;0.10;;;7.70;99.90;;;;;;4960644;28;20030;-78
2023/12/11 06:05:19;;;;;;;0.10;0.10;;;7.70;99.90;;;;;;4964515;28;20045;-81
2023/12/11 06:07:45;;;;;;;0.10;0.10;;;7.70;99.90;;;;;;4972469;28;20027;-80
2023/12/11 06:10:12;;;;;;;1.20;0.75;;;7.70;99.90;;;;;;4979154;28;20468;-76
2023/12/11 06:12:38;;;;;;;0.10;0.10;;;7.70;99.90;;;;;;4960294;28;20051;-76
2023/12/11 06:15:05;;;;;;;0.10;0.10;;;8.00;99.90;;;;;;4960452;28;20039;-76
2023/12/11 06:17:31;;;;;;;0.22;0.22;;;8.20;99.90;;;;;;4972034;28;20037;-76
2023/12/11 06:19:57;;;;;;;0.10;0.10;;;8.50;99.90;;;;;;4967580;28;20522;-77
2023/12/11 06:22:23;;;;;;;0.20;0.20;;;9.00;1.00;;;;;;4966712;28;20041;-75
2023/12/11 06:24:49;;;;;;;0.20;0.20;;;9.30;99.90;;;;;;4964686;28;20031;-77
2023/12/11 06:27:15;;;;;;;0.38;0.28;;;9.40;99.90;;;;;;4961419;28;20637;-77
2023/12/11 06:29:42;;;;;;;1.85;0.50;;;9.50;99.90;;;;;;4963924;28;20042;-77
2023/12/11 06:32:08;;;;;;;0.10;0.10;;;9.60;99.90;;;;;;4963814;28;20039;-78
2023/12/11 06:34:35;;;;;;;0.10;0.10;;;9.60;93.60;;;;;;4962254;28;20042;-77
2023/12/11 06:37:01;;;;;;;0.50;0.30;;;9.70;60.70;;;;;;4965493;28;20047;-77
2023/12/11 06:39:28;;;;;;;0.10;0.10;;;9.80;29.50;;;;;;4964497;28;20150;-76
2023/12/11 06:41:54;;;;;;;0.10;0.10;;;9.90;1.30;;;;;;4965004;28;20062;-78
2023/12/11 06:44:20;;;;;;;0.10;0.10;;;10.00;1.00;;;;;;4963185;28;20038;-77
2023/12/11 06:46:46;;;;;;;0.10;0.10;;;10.10;1.00;;;;;;4960497;28;20051;-77
2023/12/11 06:49:13;;;;;;;0.55;0.47;;;10.20;1.00;;;;;;4964012;28;20046;-77
2023/12/11 06:51:39;;;;;;;0.10;0.10;;;10.30;1.00;;;;;;4962773;28;20042;-76
2023/12/11 06:54:05;;;;;;;8.10;0.73;;;10.40;1.00;;;;;;4961777;28;20042;-77
2023/12/11 06:56:31;;;;;;;0.30;0.30;;;10.40;1.00;;;;;;4961788;28;20431;-78
2023/12/11 06:58:58;;;;;;;0.10;0.10;;;10.50;1.00;;;;;;4965990;28;20042;-77
2023/12/11 07:01:31;;;;;;;3.63;1.33;;;10.60;1.00;;;;;;4965353;28;20472;-76
2023/12/11 07:03:58;;;;;;;0.10;0.10;;;10.60;1.00;;;;;;4964050;28;20050;-77
2023/12/11 07:06:24;;;;;;;0.22;0.22;;;10.60;1.00;;;;;;4964280;28;20031;-77
2023/12/11 07:08:50;;;;;;;0.80;0.30;;;10.50;1.00;;;;;;4959831;28;20484;-77
2023/12/11 07:11:17;;;;;;;0.10;0.10;;;10.60;1.00;;;;;;4961042;28;20022;-76
2023/12/11 07:13:44;;;;;;;0.10;0.10;;;10.60;1.00;;;;;;4958807;28;20030;-77
2023/12/11 07:16:11;;;;;;;0.60;0.60;;;10.70;1.00;;;;;;4962213;28;20050;-76
2023/12/11 07:18:41;;;;;;;0.15;0.15;;;10.70;1.00;;;;;;4963379;28;20050;-76
2023/12/11 07:21:11;;;;;;;0.10;0.10;;;10.70;1.00;;;;;;4961419;28;20630;-75
2023/12/11 07:23:38;;;;;;;0.57;0.57;;;10.70;1.00;;;;;;4963285;28;20043;-76
2023/12/11 07:26:09;;;;;;;0.20;0.20;;;10.70;1.00;;;;;;4965582;28;20149;-76
2023/12/11 07:28:36;;;;;;;0.10;0.10;;;10.80;99.90;;;;;;4964430;28;20043;-77
2023/12/11 07:31:03;;;;;;;0.10;0.10;;;10.70;99.90;;;;;;4960813;28;20033;-76
2023/12/11 07:33:30;;;;;;;0.47;0.25;;;10.70;1.00;;;;;;4960165;28;20109;-77
2023/12/11 07:35:56;;;;;;;0.95;0.63;;;10.60;99.90;;;;;;4968876;28;20038;-76
2023/12/11 07:38:22;;;;;;;0.45;0.45;;;10.70;99.90;;;;;;4958936;28;20469;-77
2023/12/11 07:40:48;;;;;;;0.10;0.10;;;10.70;99.90;;;;;;4965159;28;20043;-78
2023/12/11 07:43:14;;;;;;;0.10;0.10;;;10.80;99.90;;;;;;4962146;28;20105;-77
2023/12/11 07:45:41;;;;;;;0.50;0.50;;;10.80;99.90;;;;;;4965271;28;20035;-76
2023/12/11 07:48:08;;;;;;;0.10;0.10;;;10.80;99.90;;;;;;4925364;28;20292;-76
2023/12/11 07:50:34;;;;;;;0.20;0.20;;;10.80;99.90;;;;;;4940537;29;20032;-76
2023/12/11 07:53:00;;;;;;;0.60;0.60;;;10.80;99.90;;;;;;4921816;29;20032;-77
2023/12/11 07:55:26;;;;;;;1.00;0.52;;;10.90;99.90;;;;;;4926656;29;20039;-78
2023/12/11 07:57:52;;;;;;;0.28;0.28;;;11.00;99.90;;;;;;4926990;29;20048;-78
2023/12/11 08:00:19;;;;;;;1.25;1.08;;;11.00;99.90;;;;;;4925936;29;20034;-78
2023/12/11 08:02:45;;;;;;;0.82;0.63;;;11.10;99.90;;;;;;4923308;29;20036;-76
2023/12/11 08:05:12;;;;;;;0.13;0.13;;;11.00;99.90;;;;;;4924945;29;20382;-78
2023/12/11 08:07:38;;;;;;;0.52;0.43;;;11.00;99.90;;;;;;4927859;29;20046;-78
2023/12/11 08:10:05;;;;;;;0.10;0.10;;;11.10;99.90;;;;;;4929141;29;20031;-79
2023/12/11 08:12:32;;;;;;;0.20;0.20;;;11.10;99.90;;;;;;4925521;29;20036;-77
2023/12/11 08:14:58;;;;;;;0.70;0.70;;;11.00;99.90;;;;;;4925903;29;20350;-78
2023/12/11 08:17:25;;;;;;;3.10;0.57;;;11.10;99.90;;;;;;4928583;29;20059;-77
2023/12/11 08:19:51;;;;;;;0.35;0.35;;;11.00;99.90;;;;;;4924692;29;20052;-78
2023/12/11 08:22:17;;;;;;;0.10;0.10;;;10.90;99.90;;;;;;4924201;29;20039;-78
2023/12/11 08:24:44;;;;;;;2.38;0.65;;;10.90;99.90;;;;;;4918281;29;20035;-77
2023/12/11 08:27:11;;;;;;;0.20;0.13;;;11.00;99.90;;;;;;4927643;29;20035;-76
2023/12/11 08:29:37;;;;;;;0.10;0.10;;;11.10;99.90;;;;;;4927698;29;20048;-77
2023/12/11 08:32:03;;;;;;;0.50;0.43;;;11.10;99.90;;;;;;4924691;29;20389;-77
2023/12/11 08:34:30;;;;;;;0.10;0.10;;;11.20;99.90;;;;;;4920899;29;20102;-79
2023/12/11 08:36:56;;;;;;;0.20;0.20;;;11.30;99.90;;;;;;4924855;29;20044;-77
2023/12/11 08:39:23;;;;;;;0.30;0.30;;;11.30;99.90;;;;;;4924293;29;20042;-78
2023/12/11 08:41:50;;;;;;;0.10;0.10;;;11.30;99.90;;;;;;4940121;29;20048;-77
2023/12/11 08:44:16;;;;;;;0.75;0.45;;;11.30;99.90;;;;;;4921748;29;20038;-77
2023/12/11 08:46:43;;;;;;;0.40;0.40;;;11.30;99.90;;;;;;4936883;28;20062;-76
2023/12/11 08:49:10;;;;;;;0.45;0.45;;;11.40;99.90;;;;;;4966854;28;20372;-77
2023/12/11 08:51:36;;;;;;;0.55;0.55;;;11.40;99.90;;;;;;4969285;28;20031;-77
2023/12/11 08:54:02;;;;;;;0.13;0.13;;;11.40;99.90;;;;;;4963068;28;20041;-78
2023/12/11 08:56:28;;;;;;;0.20;0.20;;;11.50;99.90;;;;;;4960651;28;20035;-77
2023/12/11 08:58:55;;;;;;;0.30;0.30;;;11.40;99.90;;;;;;4966283;28;20039;-78
2023/12/11 09:01:21;;;;;;;3.90;0.50;;;11.50;99.90;;;;;;4971240;28;20047;-77
2023/12/11 09:03:48;;;;;;;0.10;0.10;;;11.50;99.90;;;;;;4963725;28;20035;-79
2023/12/11 09:06:14;;;;;;;3.50;1.05;;;11.60;96.80;;;;;;4963940;28;20035;-78
2023/12/11 09:08:41;;;;;;;0.20;0.20;;;11.70;96.60;;;;;;4967697;28;20413;-78
2023/12/11 09:11:08;;;;;;;1.15;0.93;;;11.70;99.50;;;;;;4966820;28;20034;-76
2023/12/11 09:13:35;;;;;;;2.30;0.52;;;11.60;99.90;;;;;;4950889;28;20062;-77
2023/12/11 09:16:01;;;;;;;0.55;0.52;;;11.60;99.90;;;;;;4960417;28;20058;-77
2023/12/11 09:18:27;;;;;;;0.10;0.10;;;11.70;99.90;;;;;;4964399;28;20046;-77
2023/12/11 09:20:54;;;;;;;1.23;0.63;;;11.70;99.90;;;;;;4968958;28;20042;-77
2023/12/11 09:23:20;;;;;;;0.13;0.13;;;11.70;99.90;;;;;;4968581;28;20428;-77
2023/12/11 09:25:46;;;;;;;0.57;0.55;;;11.70;98.40;;;;;;4963972;28;20042;-76
2023/12/11 09:28:12;;;;;;;0.45;0.45;;;11.70;96.80;;;;;;4959598;28;20066;-77
2023/12/11 09:30:38;;;;;;;0.10;0.10;;;11.70;76.70;;;;;;4965596;28;20031;-76
2023/12/11 09:33:05;;;;;;;0.13;0.13;;;11.70;82.90;;;;;;4971088;28;20034;-76
2023/12/11 09:35:31;;;;;;;0.50;0.50;;;11.70;67.30;;;;;;4966686;28;20027;-76
2023/12/11 09:37:57;;;;;;;0.10;0.10;;;11.70;60.30;;;;;;4947079;28;20054;-75
2023/12/11 09:40:23;;;;;;;1.67;0.90;;;11.80;57.90;;;;;;4965084;28;20047;-77
2023/12/11 09:42:51;;;;;;;1.10;0.95;;;11.90;44.80;;;;;;4967711;28;20512;-78
2023/12/11 09:45:21;;;;;;;0.43;0.43;;;11.90;19.40;;;;;;4965102;28;20193;-79
2023/12/11 09:47:52;;;;;;;0.20;0.20;;;11.90;11.40;;;;;;4965409;28;20062;-80
2023/12/11 09:50:19;;;;;;;0.22;0.22;;;11.90;1.00;;;;;;4955064;28;20039;-80
2023/12/11 09:52:46;;;;;;;0.22;0.22;;;11.90;1.00;;;;;;4965424;28;20035;-78
2023/12/11 09:55:12;;;;;;;0.10;0.10;;;12.00;1.00;;;;;;4966871;28;20125;-75
2023/12/11 09:57:40;;;;;;;0.95;0.30;;;12.00;1.00;;;;;;4965350;28;20043;-77
2023/12/11 10:00:09;;;;;;;0.30;0.30;;;12.10;1.00;;;;;;4962765;28;20791;-78
2023/12/11 10:02:39;;;;;;;0.75;0.50;;;12.10;1.00;;;;;;4964139;28;20039;-76
2023/12/11 10:05:09;;;;;;;0.10;0.10;;;12.10;1.00;;;;;;4966667;28;20035;-77
2023/12/11 10:07:45;;;;;;;1.67;0.90;;;12.20;99.90;;;;;;4967197;28;20153;-78
2023/12/11 10:10:23;;;;;;;0.45;0.45;;;12.30;99.90;;;;;;4963473;28;20039;-75
2023/12/11 10:12:49;;;;;;;0.28;0.22;;;12.40;99.90;;;;;;4966962;28;20058;-75
2023/12/11 10:15:24;;;;;;;0.20;0.20;;;12.40;99.90;;;;;;4966217;28;20035;-76
2023/12/11 10:18:08;;;;;;;0.55;0.40;;;12.40;99.90;;;;;;4968046;28;20566;-75
2023/12/11 10:20:36;;;;;;;1.75;1.20;;;12.50;99.90;;;;;;4947337;28;20392;-75
2023/12/11 10:23:15;;;;;;;0.20;0.20;;;12.50;99.90;;;;;;4960031;28;20381;-75
2023/12/11 10:25:43;;;;;;;0.15;0.15;;;12.50;99.90;;;;;;4964714;28;20044;-76
2023/12/11 10:28:12;;;;;;;0.70;0.70;;;12.50;99.90;;;;;;4968569;28;20083;-74
2023/12/11 10:30:51;;;;;;;2.47;0.77;;;12.60;99.90;;;;;;4967169;28;20396;-79
2023/12/11 10:33:18;;;;;;;1.00;0.47;;;12.60;99.90;;;;;;4957457;28;20175;-79
2023/12/11 10:35:45;;;;;;;1.45;0.80;;;12.50;99.90;;;;;;4966907;28;20030;-78
2023/12/11 10:38:26;;;;;;;0.55;0.55;;;12.50;99.90;;;;;;4965828;28;20045;-79
2023/12/11 10:40:53;;;;;;;0.10;0.10;;;12.60;99.90;;;;;;4970923;28;20033;-79
2023/12/11 10:43:19;;;;;;;4.80;0.20;;;12.50;99.90;;;;;;4966833;28;20045;-76
2023/12/11 10:45:46;;;;;;;0.35;0.35;;;12.50;99.90;;;;;;4966534;28;20029;-80
2023/12/11 10:48:12;;;;;;;0.73;0.45;;;12.50;99.90;;;;;;4966843;28;20045;-77
2023/12/11 10:50:39;;;;;;;0.30;0.30;;;12.60;99.90;;;;;;4972299;28;20047;-77
2023/12/11 10:53:07;;;;;;;0.30;0.17;;;12.60;99.90;;;;;;4969428;28;20039;-76
2023/12/11 10:55:33;;;;;;;10.65;0.88;;;12.70;99.90;;;;;;4969791;28;20058;-76
2023/12/11 10:58:03;;;;;;;2.05;1.55;;;12.70;99.90;;;;;;4971132;28;20476;-79
2023/12/11 11:00:33;;;;;;;0.30;0.30;;;12.70;99.90;;;;;;4972172;28;20058;-76
2023/12/11 11:03:00;;;;;;;4.47;0.85;;;12.70;99.90;;;;;;4965270;28;20046;-78
2023/12/11 11:05:31;;;;;;;0.10;0.10;;;12.70;99.90;;;;;;4968975;28;20023;-77
2023/12/11 11:08:21;;;;;;;0.10;0.10;;;12.80;99.90;;;;;;4971216;28;20236;-78
2023/12/11 11:10:55;;;;;;;0.10;0.10;;;12.70;99.90;;;;;;4966371;28;20026;-77
2023/12/11 11:13:38;;;;;;;0.10;0.10;;;12.70;99.90;;;;;;4966881;28;20037;-75
2023/12/11 11:16:04;;;;;;;0.73;0.60;;;12.70;99.90;;;;;;4966596;28;20038;-76
2023/12/11 11:19:03;;;;;;;0.63;0.52;;;12.70;99.90;;;;;;4970773;28;20062;-77
2023/12/11 11:21:29;;;;;;;0.20;0.20;;;12.80;99.90;;;;;;4971265;28;20480;-80
2023/12/11 11:23:56;;;;;;;0.65;0.55;;;12.70;99.90;;;;;;4953015;28;20049;-77
2023/12/11 11:26:35;;;;;;;1.85;0.95;;;12.70;99.90;;;;;;4967218;28;20031;-75
2023/12/11 11:29:02;;;;;;;0.20;0.20;;;12.70;99.90;;;;;;4968227;28;20380;-78
2023/12/11 11:31:51;;;;;;;0.52;0.52;;;12.60;99.90;;;;;;4972203;28;20034;-76
2023/12/11 11:34:39;;;;;;;0.20;0.20;;;12.60;99.90;;;;;;4951615;28;20058;-79
2023/12/11 11:37:06;;;;;;;0.10;0.10;;;12.60;99.90;;;;;;4970086;28;20040;-77
2023/12/11 11:39:56;;;;;;;0.30;0.30;;;12.60;99.90;;;;;;4967858;28;20034;-79
2023/12/11 11:42:22;;;;;;;0.35;0.35;;;12.60;99.90;;;;;;4967410;28;20023;-77
2023/12/11 11:44:55;;;;;;;0.20;0.20;;;12.60;99.90;;;;;;4962949;28;20035;-75
2023/12/11 11:47:21;;;;;;;1.33;0.85;;;12.60;99.90;;;;;;4953987;28;20058;-77
2023/12/11 11:49:47;;;;;;;0.10;0.10;;;12.60;99.90;;;;;;4964708;28;20066;-76
2023/12/11 11:52:19;;;;;;;0.20;0.20;;;12.60;99.90;;;;;;4966536;28;20043;-77
2023/12/11 11:54:45;;;;;;;0.10;0.10;;;12.60;99.90;;;;;;4964014;28;20035;-78
2023/12/11 11:57:11;;;;;;;0.40;0.40;;;12.60;99.90;;;;;;4961693;28;20046;-76
2023/12/11 11:59:44;;;;;;;1.45;0.47;;;12.70;99.90;;;;;;4963325;28;20031;-74
2023/12/11 12:02:10;;;;;;;0.70;0.70;;;12.70;99.90;;;;;;4963227;28;20037;-75
2023/12/11 12:04:36;;;;;;;0.65;0.65;;;12.70;99.90;;;;;;4964995;28;20035;-79
2023/12/11 12:07:05;;;;;;;3.55;1.48;;;12.70;99.90;;;;;;4963876;28;20537;-79
2023/12/11 12:09:32;;;;;;;0.30;0.30;;;12.70;99.90;;;;;;4961234;28;20036;-79
2023/12/11 12:11:59;;;;;;;0.15;0.15;;;12.70;99.90;;;;;;4963790;28;20038;-76
2023/12/11 12:14:26;;;;;;;16.88;1.00;;;12.70;99.90;;;;;;4964260;28;20031;-76
2023/12/11 12:16:53;;;;;;;0.10;0.10;;;12.70;99.90;;;;;;4963062;28;20038;-77
2023/12/11 12:19:32;;;;;;;3.15;0.95;;;12.80;99.90;;;;;;4961264;28;20427;-79
2023/12/11 12:21:59;;;;;;;0.77;0.68;;;12.70;99.90;;;;;;4963642;28;20033;-74
2023/12/11 12:24:25;;;;;;;4.60;0.80;;;12.70;99.90;;;;;;4962010;28;20035;-76
2023/12/11 12:26:57;;;;;;;0.25;0.25;;;12.70;99.90;;;;;;4964281;28;20054;-76
2023/12/11 12:29:29;;;;;;;1.85;1.20;;;12.70;99.90;;;;;;4960409;28;20042;-77
2023/12/11 12:31:57;;;;;;;2.08;1.05;;;12.70;99.90;;;;;;4967755;28;20034;-77
2023/12/11 12:34:25;;;;;;;0.10;0.10;;;12.70;99.90;;;;;;4961290;28;20115;-75
2023/12/11 12:36:54;;;;;;;0.10;0.10;;;12.70;99.90;;;;;;4963653;28;20054;-78
2023/12/11 12:39:20;;;;;;;0.15;0.15;;;12.70;99.90;;;;;;4962584;28;20051;-76
2023/12/11 12:41:50;;;;;;;0.10;0.10;;;12.80;99.90;;;;;;4960644;28;20032;-75
2023/12/11 12:44:20;;;;;;;0.90;0.40;;;12.80;99.90;;;;;;4945651;28;20046;-75
2023/12/11 12:46:47;;;;;;;0.97;0.97;;;12.80;99.90;;;;;;4965728;28;20062;-78
2023/12/11 12:49:15;;;;;;;3.63;1.17;;;12.70;99.90;;;;;;4962056;28;20302;-77
2023/12/11 12:51:54;;;;;;;1.55;0.68;;;12.70;99.90;;;;;;4958927;28;20036;-78
2023/12/11 12:54:24;;;;;;;0.10;0.10;;;12.70;99.90;;;;;;4964901;28;20227;-78
2023/12/11 12:56:55;;;;;;;2.08;0.80;;;12.70;99.90;;;;;;4963695;28;20102;-78